createdAt,value
2022-10-01T00:02:09.491Z,99464.34
2022-10-01T00:04:39.720Z,99471.97
2022-10-01T00:07:11.055Z,99472.44
2022-10-01T00:09:39.908Z,99469.25
2022-10-01T00:12:08.213Z,99463.56
2022-10-01T00:14:38.578Z,99459.22
2022-10-01T00:17:08.484Z,99457.50
2022-10-01T00:19:36.947Z,99459.84
2022-10-01T00:22:05.479Z,99457.84
2022-10-01T00:24:33.863Z,99452.72
2022-10-01T00:27:02.273Z,99455.34
2022-10-01T00:29:31.885Z,99452.44
2022-10-01T00:32:00.382Z,99450.25
2022-10-01T00:34:30.193Z,99454.19
2022-10-01T00:36:58.661Z,99449.69
2022-10-01T00:39:27.006Z,99450.50
2022-10-01T00:41:55.340Z,99454.44
2022-10-01T00:44:32.314Z,99462.06
2022-10-01T00:47:06.229Z,99458.38
2022-10-01T00:49:39.236Z,99463.69
2022-10-01T00:52:13.289Z,99465.78
2022-10-01T00:54:45.680Z,99465.56
2022-10-01T00:57:17.310Z,99455.88
2022-10-01T00:59:46.952Z,99455.22
2022-10-01T01:02:15.630Z,99452.06
2022-10-01T01:04:45.420Z,99449.91
2022-10-01T01:07:14.231Z,99444.31
2022-10-01T01:09:45.155Z,99454.22
2022-10-01T01:12:27.661Z,99454.03
2022-10-01T01:15:07.420Z,99451.16
2022-10-01T01:17:43.719Z,99444.34
2022-10-01T01:20:40.230Z,99459.38
2022-10-01T01:23:29.539Z,99451.97
2022-10-01T01:26:08.865Z,99457.09
2022-10-01T01:28:42.111Z,99452.19
2022-10-01T01:31:15.237Z,99451.94
2022-10-01T01:33:47.154Z,99445.78
2022-10-01T01:36:19.678Z,99443.72
2022-10-01T01:38:54.892Z,99450.91
2022-10-01T01:41:26.851Z,99429.25
2022-10-01T01:44:01.187Z,99440.84
2022-10-01T01:46:34.809Z,99439.00
2022-10-01T01:49:05.455Z,99441.91
2022-10-01T01:51:41.415Z,99443.50
2022-10-01T01:54:10.160Z,99437.34
2022-10-01T01:56:38.929Z,99436.09
2022-10-01T01:59:08.609Z,99426.38
2022-10-01T02:01:39.429Z,99424.16
2022-10-01T02:04:11.001Z,99424.19
2022-10-01T02:06:59.128Z,99421.91
2022-10-01T02:09:31.740Z,99413.47
2022-10-01T02:12:11.107Z,99424.78
2022-10-01T02:14:54.404Z,99423.97
2022-10-01T02:17:32.484Z,99420.66
2022-10-01T02:20:10.185Z,99429.31
2022-10-01T02:22:43.755Z,99423.34
2022-10-01T02:25:15.306Z,99423.53
2022-10-01T02:27:49.845Z,99420.66
2022-10-01T02:30:20.060Z,99421.47
2022-10-01T02:32:51.268Z,99417.59
2022-10-01T02:35:26.938Z,99418.63
2022-10-01T02:37:57.844Z,99406.25
2022-10-01T02:40:28.702Z,99405.81
2022-10-01T02:43:03.105Z,99407.06
2022-10-01T02:45:37.997Z,99389.56
2022-10-01T02:48:12.667Z,99387.91
2022-10-01T02:50:47.285Z,99394.50
2022-10-01T02:53:23.962Z,99388.75
2022-10-01T02:55:54.134Z,99395.72
2022-10-01T02:58:27.518Z,99393.69
2022-10-01T03:01:04.901Z,99393.06
2022-10-01T03:03:33.338Z,99394.28
2022-10-01T03:06:07.900Z,99386.91
2022-10-01T03:08:37.721Z,99395.16
2022-10-01T03:11:08.683Z,99383.59
2022-10-01T03:13:40.877Z,99390.19
2022-10-01T03:16:13.404Z,99391.22
2022-10-01T03:18:41.920Z,99384.41
2022-10-01T03:21:10.676Z,99383.59
2022-10-01T03:23:39.296Z,99389.75
2022-10-01T03:26:07.945Z,99376.38
2022-10-01T03:28:36.695Z,99379.50
2022-10-01T03:31:11.362Z,99379.09
2022-10-01T03:33:41.445Z,99380.28
2022-10-01T03:36:10.158Z,99380.06
2022-10-01T03:38:38.498Z,99382.97
2022-10-01T03:41:07.459Z,99381.03
2022-10-01T03:43:35.787Z,99386.47
2022-10-01T03:46:06.140Z,99382.16
2022-10-01T03:48:50.790Z,99384.00
2022-10-01T03:51:20.927Z,99381.53
2022-10-01T03:53:49.594Z,99377.78
2022-10-01T03:56:18.979Z,99379.19
2022-10-01T03:58:47.359Z,99380.06
2022-10-01T04:01:15.856Z,99379.66
2022-10-01T04:03:44.531Z,99380.00
2022-10-01T04:06:14.899Z,99378.38
2022-10-01T04:08:43.725Z,99377.16
2022-10-01T04:11:12.502Z,99371.88
2022-10-01T04:13:41.012Z,99377.22
2022-10-01T04:16:12.477Z,99388.31
2022-10-01T04:18:41.077Z,99381.13
2022-10-01T04:21:15.476Z,99387.69
2022-10-01T04:23:44.638Z,99378.44
2022-10-01T04:26:15.448Z,99380.28
2022-10-01T04:28:49.069Z,99381.31
2022-10-01T04:31:26.658Z,99385.25
2022-10-01T04:33:56.622Z,99382.34
2022-10-01T04:36:38.726Z,99380.91
2022-10-01T04:39:10.175Z,99389.97
2022-10-01T04:41:41.729Z,99383.53
2022-10-01T04:44:10.527Z,99392.25
2022-10-01T04:46:51.398Z,99391.22
2022-10-01T04:49:21.862Z,99382.16
2022-10-01T04:51:51.833Z,99387.09
2022-10-01T04:54:21.304Z,99387.69
2022-10-01T04:56:49.750Z,99389.56
2022-10-01T04:59:18.469Z,99389.75
2022-10-01T05:01:46.914Z,99392.41
2022-10-01T05:04:15.586Z,99390.09
2022-10-01T05:06:47.541Z,99390.22
2022-10-01T05:09:17.591Z,99388.22
2022-10-01T05:11:47.545Z,99385.44
2022-10-01T05:14:20.607Z,99388.16
2022-10-01T05:16:49.204Z,99393.19
2022-10-01T05:19:19.469Z,99386.19
2022-10-01T05:21:50.599Z,99376.50
2022-10-01T05:24:24.048Z,99383.59
2022-10-01T05:26:56.394Z,99383.59
2022-10-01T05:29:29.705Z,99382.13
2022-10-01T05:32:03.595Z,99377.22
2022-10-01T05:34:41.487Z,99382.75
2022-10-01T05:37:12.177Z,99383.56
2022-10-01T05:39:42.227Z,99380.91
2022-10-01T05:42:10.667Z,99381.28
2022-10-01T05:44:40.189Z,99377.34
2022-10-01T05:47:08.841Z,99375.56
2022-10-01T05:49:39.745Z,99365.78
2022-10-01T05:52:10.175Z,99371.81
2022-10-01T05:54:42.146Z,99360.88
2022-10-01T05:57:12.696Z,99364.41
2022-10-01T05:59:44.489Z,99361.16
2022-10-01T06:02:13.165Z,99360.13
2022-10-01T06:04:44.111Z,99357.84
2022-10-01T06:07:12.565Z,99358.47
2022-10-01T06:09:41.211Z,99356.44
2022-10-01T06:12:15.411Z,99353.31
2022-10-01T06:14:49.510Z,99344.69
2022-10-01T06:17:20.894Z,99349.41
2022-10-01T06:19:51.608Z,99340.56
2022-10-01T06:22:20.148Z,99340.97
2022-10-01T06:24:48.910Z,99342.22
2022-10-01T06:27:19.043Z,99343.84
2022-10-01T06:29:47.841Z,99342.63
2022-10-01T06:32:19.945Z,99338.72
2022-10-01T06:34:48.619Z,99335.81
2022-10-01T06:37:17.706Z,99342.00
2022-10-01T06:39:49.861Z,99333.97
2022-10-01T06:42:22.763Z,99332.13
2022-10-01T06:44:51.341Z,99335.59
2022-10-01T06:47:19.833Z,99331.03
2022-10-01T06:49:50.517Z,99326.03
2022-10-01T06:52:36.345Z,99330.25
2022-10-01T06:55:05.345Z,99327.19
2022-10-01T06:57:34.939Z,99315.88
2022-10-01T07:00:05.517Z,99318.50
2022-10-01T07:02:34.314Z,99327.16
2022-10-01T07:05:09.424Z,99319.13
2022-10-01T07:07:39.820Z,99314.59
2022-10-01T07:10:10.924Z,99319.00
2022-10-01T07:12:43.229Z,99302.56
2022-10-01T07:15:11.839Z,99304.25
2022-10-01T07:17:46.145Z,99306.34
2022-10-01T07:20:17.897Z,99307.75
2022-10-01T07:22:54.010Z,99302.34
2022-10-01T07:25:24.492Z,99306.00
2022-10-01T07:28:16.813Z,99299.47
2022-10-01T07:30:50.051Z,99288.72
2022-10-01T07:33:20.188Z,99300.84
2022-10-01T07:35:49.420Z,99299.53
2022-10-01T07:38:18.360Z,99291.53
2022-10-01T07:40:53.423Z,99287.03
2022-10-01T07:43:23.885Z,99297.00
2022-10-01T07:45:55.335Z,99288.59
2022-10-01T07:48:23.988Z,99286.72
2022-10-01T07:50:53.071Z,99287.88
2022-10-01T07:53:21.480Z,99280.09
2022-10-01T07:55:49.897Z,99268.16
2022-10-01T07:58:18.906Z,99267.94
2022-10-01T08:00:48.960Z,99264.09
2022-10-01T08:03:17.683Z,99254.03
2022-10-01T08:05:46.656Z,99259.38
2022-10-01T08:08:14.773Z,99249.63
2022-10-01T08:10:43.240Z,99255.78
2022-10-01T08:13:15.527Z,99254.59
2022-10-01T08:15:44.754Z,99239.84
2022-10-01T08:18:15.268Z,99234.94
2022-10-01T08:20:44.393Z,99227.78
2022-10-01T08:23:14.875Z,99226.19
2022-10-01T08:25:44.642Z,99230.00
2022-10-01T08:28:13.369Z,99223.97
2022-10-01T08:30:42.733Z,99217.84
2022-10-01T08:33:13.112Z,99212.63
2022-10-01T08:35:44.528Z,99222.63
2022-10-01T08:38:14.211Z,99215.47
2022-10-01T08:40:47.094Z,99213.34
2022-10-01T08:43:30.031Z,99210.81
2022-10-01T08:46:02.790Z,99218.66
2022-10-01T08:48:39.892Z,99218.22
2022-10-01T08:51:17.225Z,99213.97
2022-10-01T08:53:49.679Z,99205.63
2022-10-01T08:56:23.165Z,99208.00
2022-10-01T08:58:59.227Z,99197.38
2022-10-01T09:01:29.827Z,99200.94
2022-10-01T09:03:59.779Z,99198.75
2022-10-01T09:06:30.368Z,99202.94
2022-10-01T09:09:12.011Z,99199.25
2022-10-01T09:11:53.761Z,99193.69
2022-10-01T09:14:38.069Z,99192.63
2022-10-01T09:17:14.000Z,99183.97
2022-10-01T09:19:59.280Z,99189.00
2022-10-01T09:22:40.558Z,99179.06
2022-10-01T09:25:37.079Z,99180.38
2022-10-01T09:28:15.358Z,99174.44
2022-10-01T09:30:47.512Z,99174.25
2022-10-01T09:33:18.742Z,99164.13
2022-10-01T09:36:15.378Z,99165.47
2022-10-01T09:38:51.302Z,99167.81
2022-10-01T09:41:20.743Z,99162.03
2022-10-01T09:43:49.183Z,99166.44
2022-10-01T09:46:20.232Z,99154.78
2022-10-01T09:48:57.730Z,99151.69
2022-10-01T09:51:34.798Z,99149.66
2022-10-01T09:54:15.363Z,99147.06
2022-10-01T09:56:48.180Z,99146.72
2022-10-01T09:59:22.698Z,99139.47
2022-10-01T10:01:56.125Z,99134.09
2022-10-01T10:04:24.810Z,99135.69
2022-10-01T10:07:00.845Z,99123.78
2022-10-01T10:09:33.397Z,99132.47
2022-10-01T10:12:07.143Z,99129.47
2022-10-01T10:14:38.078Z,99117.56
2022-10-01T10:17:09.904Z,99117.03
2022-10-01T10:19:39.480Z,99112.81
2022-10-01T10:22:13.538Z,99113.72
2022-10-01T10:24:43.449Z,99108.88
2022-10-01T10:27:26.918Z,99100.22
2022-10-01T10:30:08.907Z,99096.06
2022-10-01T10:32:37.947Z,99095.56
2022-10-01T10:35:13.458Z,99097.44
2022-10-01T10:37:48.617Z,99099.44
2022-10-01T10:40:25.725Z,99101.09
2022-10-01T10:42:59.244Z,99089.41
2022-10-01T10:45:33.892Z,99088.63
2022-10-01T10:48:06.069Z,99081.38
2022-10-01T10:50:38.607Z,99081.31
2022-10-01T10:53:22.478Z,99080.47
2022-10-01T10:56:01.335Z,99078.41
2022-10-01T10:58:33.453Z,99073.13
2022-10-01T11:01:06.290Z,99063.75
2022-10-01T11:03:39.052Z,99060.94
2022-10-01T11:06:13.099Z,99058.56
2022-10-01T11:08:42.798Z,99053.41
2022-10-01T11:11:23.760Z,99047.84
2022-10-01T11:14:08.555Z,99053.94
2022-10-01T11:16:50.212Z,99062.56
2022-10-01T11:19:38.538Z,99054.31
2022-10-01T11:22:26.711Z,99051.41
2022-10-01T11:25:32.316Z,99058.66
2022-10-01T11:28:17.001Z,99046.63
2022-10-01T11:30:57.139Z,99048.34
2022-10-01T11:33:34.490Z,99042.25
2022-10-01T11:36:08.729Z,99044.47
2022-10-01T11:38:49.380Z,99037.06
2022-10-01T11:41:27.097Z,99044.16
2022-10-01T11:44:03.305Z,99030.00
2022-10-01T11:46:46.954Z,99039.25
2022-10-01T11:49:30.352Z,99031.25
2022-10-01T11:52:08.873Z,99025.50
2022-10-01T11:54:43.274Z,99021.06
2022-10-01T11:57:34.349Z,99019.19
2022-10-01T12:00:09.734Z,99006.97
2022-10-01T12:02:49.600Z,99008.13
2022-10-01T12:05:22.938Z,99013.63
2022-10-01T12:07:58.537Z,99010.25
2022-10-01T12:10:39.353Z,99011.41
2022-10-01T12:13:16.774Z,99001.28
2022-10-01T12:15:51.414Z,98991.53
2022-10-01T12:18:25.403Z,98989.44
2022-10-01T12:20:57.350Z,98990.66
2022-10-01T12:23:30.344Z,98986.94
2022-10-01T12:26:08.930Z,98988.84
2022-10-01T12:28:44.938Z,98974.88
2022-10-01T12:31:23.601Z,98982.44
2022-10-01T12:34:07.901Z,98988.53
2022-10-01T12:36:49.011Z,98978.09
2022-10-01T12:39:32.207Z,98972.22
2022-10-01T12:42:14.878Z,98972.25
2022-10-01T12:44:59.940Z,98967.78
2022-10-01T12:47:40.404Z,98967.03
2022-10-01T12:50:23.665Z,98958.66
2022-10-01T12:53:06.803Z,98963.56
2022-10-01T12:55:54.944Z,98965.28
2022-10-01T12:58:44.989Z,98951.53
2022-10-01T13:01:31.924Z,98950.69
2022-10-01T13:04:24.983Z,98952.09
2022-10-01T13:07:08.038Z,98950.13
2022-10-01T13:09:48.907Z,98941.69
2022-10-01T13:12:25.960Z,98933.13
2022-10-01T13:14:56.341Z,98933.44
2022-10-01T13:17:34.476Z,98926.31
2022-10-01T13:20:11.981Z,98931.00
2022-10-01T13:22:47.323Z,98917.91
2022-10-01T13:25:31.833Z,98922.66
2022-10-01T13:28:12.122Z,98927.03
2022-10-01T13:30:59.243Z,98933.63
2022-10-01T13:33:29.606Z,98925.78
2022-10-01T13:36:01.521Z,98920.03
2022-10-01T13:38:40.165Z,98908.94
2022-10-01T13:41:17.968Z,98901.31
2022-10-01T13:44:00.893Z,98906.84
2022-10-01T13:46:34.295Z,98902.31
2022-10-01T13:49:08.636Z,98900.97
2022-10-01T13:51:39.351Z,98889.66
2022-10-01T13:54:25.200Z,98891.63
2022-10-01T13:56:53.909Z,98895.66
2022-10-01T13:59:34.044Z,98894.91
2022-10-01T14:02:03.274Z,98884.78
2022-10-01T14:04:38.975Z,98885.72
2022-10-01T14:07:19.208Z,98893.19
2022-10-01T14:09:52.415Z,98901.50
2022-10-01T14:12:44.068Z,98894.91
2022-10-01T14:15:54.848Z,98894.59
2022-10-01T14:18:27.143Z,98889.03
2022-10-01T14:21:03.517Z,98889.31
2022-10-01T14:23:40.585Z,98890.22
2022-10-01T14:26:23.184Z,98885.50
2022-10-01T14:29:07.002Z,98886.00
2022-10-01T14:31:50.782Z,98883.97
2022-10-01T14:34:40.157Z,98875.06
2022-10-01T14:37:11.662Z,98882.22
2022-10-01T14:39:45.073Z,98878.56
2022-10-01T14:42:17.829Z,98874.81
2022-10-01T14:44:50.495Z,98868.28
2022-10-01T14:47:22.168Z,98861.66
2022-10-01T14:49:51.932Z,98852.34
2022-10-01T14:52:24.232Z,98855.75
2022-10-01T14:55:00.183Z,98856.84
2022-10-01T14:57:33.337Z,98845.06
2022-10-01T15:00:11.547Z,98837.41
2022-10-01T15:02:46.476Z,98840.38
2022-10-01T15:05:23.302Z,98829.97
2022-10-01T15:07:52.081Z,98837.94
2022-10-01T15:10:26.935Z,98826.38
2022-10-01T15:12:57.678Z,98826.84
2022-10-01T15:15:30.954Z,98814.19
2022-10-01T15:17:59.635Z,98804.59
2022-10-01T15:20:28.839Z,98799.47
2022-10-01T15:23:01.500Z,98795.38
2022-10-01T15:25:33.506Z,98801.00
2022-10-01T15:28:02.469Z,98799.34
2022-10-01T15:30:31.104Z,98798.84
2022-10-01T15:32:59.675Z,98787.00
2022-10-01T15:35:29.349Z,98792.19
2022-10-01T15:38:00.709Z,98788.00
2022-10-01T15:40:34.708Z,98783.16
2022-10-01T15:43:26.388Z,98779.00
2022-10-01T15:46:12.920Z,98787.03
2022-10-01T15:48:44.361Z,98776.75
2022-10-01T15:51:21.037Z,98769.91
2022-10-01T15:53:49.793Z,98752.88
2022-10-01T15:56:25.154Z,98755.56
2022-10-01T15:58:57.000Z,98739.97
2022-10-01T16:01:28.397Z,98747.91
2022-10-01T16:04:03.767Z,98750.34
2022-10-01T16:06:41.529Z,98738.31
2022-10-01T16:09:16.101Z,98747.91
2022-10-01T16:11:57.680Z,98736.22
2022-10-01T16:14:32.509Z,98736.94
2022-10-01T16:17:33.167Z,98731.63
2022-10-01T16:20:39.943Z,98729.06
2022-10-01T16:23:36.562Z,98713.34
2022-10-01T16:26:39.108Z,98713.69
2022-10-01T16:29:36.694Z,98704.19
2022-10-01T16:32:12.826Z,98710.13
2022-10-01T16:34:43.113Z,98719.88
2022-10-01T16:37:13.213Z,98715.19
2022-10-01T16:39:41.869Z,98710.81
2022-10-01T16:42:23.842Z,98704.69
2022-10-01T16:44:54.519Z,98697.34
2022-10-01T16:47:25.950Z,98690.16
2022-10-01T16:49:54.512Z,98691.06
2022-10-01T16:52:23.019Z,98677.03
2022-10-01T16:54:54.747Z,98671.31
2022-10-01T16:57:23.471Z,98653.34
2022-10-01T16:59:55.801Z,98648.25
2022-10-01T17:02:24.480Z,98654.06
2022-10-01T17:04:54.870Z,98648.03
2022-10-01T17:07:23.397Z,98647.41
2022-10-01T17:09:51.957Z,98653.72
2022-10-01T17:12:20.599Z,98639.31
2022-10-01T17:14:49.027Z,98642.13
2022-10-01T17:17:19.165Z,98632.47
2022-10-01T17:19:48.277Z,98625.84
2022-10-01T17:22:16.783Z,98632.38
2022-10-01T17:24:45.491Z,98630.94
2022-10-01T17:27:13.948Z,98621.06
2022-10-01T17:29:45.340Z,98615.38
2022-10-01T17:32:19.057Z,98618.06
2022-10-01T17:34:47.858Z,98617.13
2022-10-01T17:37:16.800Z,98604.06
2022-10-01T17:39:45.396Z,98606.78
2022-10-01T17:42:15.305Z,98597.97
2022-10-01T17:44:44.004Z,98596.16
2022-10-01T17:47:12.693Z,98589.53
2022-10-01T17:49:50.808Z,98582.53
2022-10-01T17:52:21.133Z,98577.78
2022-10-01T17:54:49.847Z,98566.47
2022-10-01T17:57:18.409Z,98567.81
2022-10-01T17:59:47.083Z,98560.03
2022-10-01T18:02:39.709Z,98550.31
2022-10-01T18:05:09.576Z,98551.75
2022-10-01T18:07:39.603Z,98548.66
2022-10-01T18:10:11.048Z,98543.13
2022-10-01T18:12:39.860Z,98536.38
2022-10-01T18:15:08.862Z,98529.59
2022-10-01T18:17:43.018Z,98529.78
2022-10-01T18:20:13.632Z,98531.38
2022-10-01T18:22:42.142Z,98529.03
2022-10-01T18:25:10.969Z,98525.06
2022-10-01T18:27:39.668Z,98522.38
2022-10-01T18:30:09.755Z,98504.84
2022-10-01T18:32:43.732Z,98509.16
2022-10-01T18:35:21.660Z,98502.50
2022-10-01T18:37:53.892Z,98494.63
2022-10-01T18:40:24.971Z,98487.97
2022-10-01T18:43:00.622Z,98480.19
2022-10-01T18:45:50.906Z,98475.16
2022-10-01T18:48:52.269Z,98470.06
2022-10-01T18:51:35.284Z,98463.31
2022-10-01T18:54:48.731Z,98452.50
2022-10-01T18:57:31.939Z,98448.03
2022-10-01T19:00:21.039Z,98450.38
2022-10-01T19:03:11.247Z,98458.78
2022-10-01T19:05:56.943Z,98453.53
2022-10-01T19:08:38.769Z,98446.84
2022-10-01T19:11:18.104Z,98453.69
2022-10-01T19:13:55.429Z,98449.84
2022-10-01T19:16:39.844Z,98449.03
2022-10-01T19:19:28.784Z,98437.75
2022-10-01T19:22:00.779Z,98443.38
2022-10-01T19:24:58.004Z,98444.28
2022-10-01T19:27:49.511Z,98453.28
2022-10-01T19:30:20.476Z,98430.84
2022-10-01T19:32:55.165Z,98410.91
2022-10-01T19:35:28.160Z,98421.34
2022-10-01T19:38:02.695Z,98416.91
2022-10-01T19:40:38.194Z,98406.72
2022-10-01T19:43:17.247Z,98410.13
2022-10-01T19:45:51.481Z,98410.97
2022-10-01T19:48:29.241Z,98411.88
2022-10-01T19:51:03.787Z,98414.88
2022-10-01T19:53:34.795Z,98419.50
2022-10-01T19:56:05.805Z,98425.94
2022-10-01T19:58:34.597Z,98417.22
2022-10-01T20:01:04.188Z,98409.59
2022-10-01T20:03:39.347Z,98411.81
2022-10-01T20:06:16.849Z,98403.56
2022-10-01T20:08:52.844Z,98396.13
2022-10-01T20:11:29.179Z,98387.97
2022-10-01T20:14:34.999Z,98383.19
2022-10-01T20:17:23.764Z,98384.59
2022-10-01T20:19:56.992Z,98374.56
2022-10-01T20:22:36.102Z,98363.75
2022-10-01T20:25:12.998Z,98363.75
2022-10-01T20:27:55.046Z,98361.31
2022-10-01T20:30:24.013Z,98362.13
2022-10-01T20:32:54.750Z,98357.59
2022-10-01T20:35:31.265Z,98354.31
2022-10-01T20:38:07.004Z,98351.53
2022-10-01T20:40:40.760Z,98342.22
2022-10-01T20:43:17.916Z,98343.03
2022-10-01T20:45:49.786Z,98337.53
2022-10-01T20:48:23.951Z,98333.13
2022-10-01T20:50:55.541Z,98325.56
2022-10-01T20:53:31.392Z,98322.91
2022-10-01T20:56:06.163Z,98324.03
2022-10-01T20:58:44.658Z,98316.69
2022-10-01T21:01:20.733Z,98306.28
2022-10-01T21:03:55.020Z,98316.59
2022-10-01T21:06:30.245Z,98325.22
2022-10-01T21:09:01.928Z,98313.56
2022-10-01T21:11:34.431Z,98312.03
2022-10-01T21:14:15.696Z,98306.84
2022-10-01T21:17:08.988Z,98300.22
2022-10-01T21:19:50.118Z,98299.63
2022-10-01T21:22:34.539Z,98295.28
2022-10-01T21:25:11.195Z,98295.53
2022-10-01T21:28:06.412Z,98286.47
2022-10-01T21:30:57.105Z,98287.78
2022-10-01T21:33:28.331Z,98284.22
2022-10-01T21:36:03.183Z,98297.00
2022-10-01T21:38:39.301Z,98283.84
2022-10-01T21:41:21.422Z,98300.47
2022-10-01T21:44:11.426Z,98293.97
2022-10-01T21:46:50.509Z,98290.75
2022-10-01T21:49:24.534Z,98293.56
2022-10-01T21:52:08.224Z,98286.84
2022-10-01T21:55:31.976Z,98293.88
2022-10-01T21:58:16.371Z,98296.84
2022-10-01T22:00:52.699Z,98293.28
2022-10-01T22:03:31.897Z,98289.28
2022-10-01T22:06:09.255Z,98297.78
2022-10-01T22:08:49.631Z,98293.38
2022-10-01T22:11:21.558Z,98295.13
2022-10-01T22:13:53.800Z,98303.31
2022-10-01T22:16:26.461Z,98300.66
2022-10-01T22:18:58.844Z,98308.25
2022-10-01T22:21:34.818Z,98300.97
2022-10-01T22:24:07.657Z,98299.19
2022-10-01T22:26:41.191Z,98298.00
2022-10-01T22:29:14.809Z,98308.25
2022-10-01T22:31:47.294Z,98295.13
2022-10-01T22:34:22.627Z,98298.06
2022-10-01T22:36:57.800Z,98302.63
2022-10-01T22:39:30.116Z,98301.47
2022-10-01T22:42:05.359Z,98307.94
2022-10-01T22:44:33.846Z,98313.06
2022-10-01T22:47:23.609Z,98304.16
2022-10-01T22:50:14.200Z,98307.41
2022-10-01T22:52:51.667Z,98307.75
2022-10-01T22:55:29.935Z,98308.00
2022-10-01T22:58:26.152Z,98308.28
2022-10-01T23:01:07.435Z,98305.31
2022-10-01T23:03:50.734Z,98314.84
2022-10-01T23:06:28.352Z,98302.34
2022-10-01T23:09:04.675Z,98305.63
2022-10-01T23:11:42.538Z,98305.16
2022-10-01T23:14:23.531Z,98300.56
2022-10-01T23:16:59.301Z,98307.47
2022-10-01T23:19:40.408Z,98306.88
2022-10-01T23:22:23.013Z,98303.50
2022-10-01T23:25:04.348Z,98303.13
2022-10-01T23:27:42.366Z,98306.91
2022-10-01T23:30:14.449Z,98312.91
2022-10-01T23:33:02.243Z,98311.44
2022-10-01T23:35:41.688Z,98309.44
2022-10-01T23:38:25.772Z,98301.78
2022-10-01T23:40:55.807Z,98306.31
2022-10-01T23:43:30.250Z,98304.38
2022-10-01T23:46:03.806Z,98302.47
2022-10-01T23:48:39.452Z,98303.75
2022-10-01T23:51:13.513Z,98301.28
2022-10-01T23:53:49.584Z,98310.19
2022-10-01T23:56:39.984Z,98305.41
2022-10-01T23:59:16.556Z,98312.97
